^^
Station Historical Data
Daily Summary for January 21, 2018 Units:  Metric    English   Both
« Previous Day
Next Day »
Daily Weekly Monthly Yearly Custom
  High: Low: Average:
Temperature: -17.8 °C -23.7 °C -21.9 °C
Dew Point: -17.8 °C -24.5 °C -22.4 °C
Humidity: Humidity% 90% 92%
Wind Speed: 0km/h 0km/h 0.5km/h
Wind Gust: 0km/h - -
Wind- - NNW
Pressure: 0 hPa 34178.3 hPa -
Precipitation: 0 mm    
Historical Graphs
 
 
Tabular Data for January 21, 2018
Time Temperature Dew Point Pressure Wind Wind Speed Wind Gust Humidity Rainfall Rate (Hourly) solar Conditions
-17.8 °C -17.8 °C 0 hPa Calm     Humidity% 0 mm SoftwareType W/m2 Conditions
00:04 -20.5 °C -21.1 °C 34178.3 hPa Calm     93% 0 mm WeatherDisplay:10.37 W/m2 FEW
00:09 -20.5 °C -21.1 °C 34178.3 hPa Calm     93% 0 mm WeatherDisplay:10.37 W/m2 FEW
00:14 -20.5 °C -21.1 °C 34178.3 hPa Calm     93% 0 mm WeatherDisplay:10.37 W/m2 FEW
00:19 -20.5 °C -21.1 °C 34178.3 hPa NNW 0.5 km/h 9 km/h 93% 0 mm WeatherDisplay:10.37 W/m2 FEW
00:24 -20.6 °C -21.1 °C 34178.3 hPa Calm     93% 0 mm WeatherDisplay:10.37 W/m2 FEW
00:29 -20.6 °C -21 °C 34178.3 hPa NNW 0.3 km/h 6 km/h 94% 0 mm WeatherDisplay:10.37 W/m2 FEW
00:34 -20.6 °C -21 °C 34178.3 hPa Calm     94% 0 mm WeatherDisplay:10.37 W/m2 FEW
00:39 -20.6 °C -21.1 °C 34178.3 hPa Calm     94% 0 mm WeatherDisplay:10.37 W/m2 FEW
00:44 -20.6 °C -21.1 °C 34178.3 hPa Calm     94% 0 mm WeatherDisplay:10.37 W/m2 FEW
00:49 -20.6 °C -21.1 °C 34178.3 hPa Calm     94% 0 mm WeatherDisplay:10.37 W/m2 FEW
00:54 -20.6 °C -21.1 °C 34178.3 hPa Calm     94% 0 mm WeatherDisplay:10.37 W/m2 FEW
00:59 -20.6 °C -21.1 °C 34178.3 hPa Calm     94% 0 mm WeatherDisplay:10.37 W/m2 FEW
01:04 -20.6 °C -21.1 °C 34178.3 hPa Calm     94% 0 mm WeatherDisplay:10.37 W/m2 FEW
01:09 -20.6 °C -21.1 °C 34178.3 hPa Calm     94% 0 mm WeatherDisplay:10.37 W/m2 FEW
01:14 -20.6 °C -21.1 °C 34178.3 hPa Calm     94% 0 mm WeatherDisplay:10.37 W/m2 FEW
01:19 -20.6 °C -21.1 °C 34178.3 hPa Calm     94% 0 mm WeatherDisplay:10.37 W/m2 FEW
01:24 -20.6 °C -21.1 °C 34178.3 hPa NNW 6.4 km/h 9 km/h 94% 0 mm WeatherDisplay:10.37 W/m2 FEW
01:29 -20.6 °C -21.1 °C 34178.3 hPa Calm     94% 0 mm WeatherDisplay:10.37 W/m2 FEW
01:34 -20.6 °C -21.1 °C 34178.3 hPa NNW 5.6 km/h 11.9 km/h 94% 0 mm WeatherDisplay:10.37 W/m2 FEW
01:39 -20.6 °C -21.2 °C 34188.4 hPa Calm     93% 0 mm WeatherDisplay:10.37 W/m2 FEW
01:44 -20.7 °C -21.2 °C 34188.4 hPa NNW 2.1 km/h 6 km/h 93% 0 mm WeatherDisplay:10.37 W/m2 FEW
01:49 -20.7 °C -21.2 °C 34188.4 hPa NNW 3.1 km/h 10.3 km/h 93% 0 mm WeatherDisplay:10.37 W/m2 FEW
01:54 -20.7 °C -21.2 °C 34178.3 hPa Calm     93% 0 mm WeatherDisplay:10.37 W/m2 FEW
01:59 -20.7 °C -21.2 °C 34178.3 hPa Calm     93% 0 mm WeatherDisplay:10.37 W/m2 FEW
02:04 -20.7 °C -21.2 °C 34188.4 hPa Calm     93% 0 mm WeatherDisplay:10.37 W/m2 FEW
02:09 -20.7 °C -21.2 °C 34188.4 hPa NNW 4.2 km/h 9 km/h 94% 0 mm WeatherDisplay:10.37 W/m2 FEW
02:14 -20.8 °C -21.3 °C 34188.4 hPa Calm     94% 0 mm WeatherDisplay:10.37 W/m2 FEW
02:19 -20.8 °C -21.3 °C 34188.4 hPa Calm     93% 0 mm WeatherDisplay:10.37 W/m2 FEW
02:24 -20.9 °C -21.4 °C 34188.4 hPa Calm     93% 0 mm WeatherDisplay:10.37 W/m2 FEW
02:29 -20.9 °C -21.5 °C 34188.4 hPa NNW 1 km/h 6 km/h 93% 0 mm WeatherDisplay:10.37 W/m2 FEW
02:34 -21 °C -21.5 °C 34188.4 hPa Calm     93% 0 mm WeatherDisplay:10.37 W/m2 FEW
02:39 -21 °C -21.6 °C 34188.4 hPa NNW 0.5 km/h 11.9 km/h 93% 0 mm WeatherDisplay:10.37 W/m2 FEW
02:44 -21.1 °C -21.6 °C 34188.4 hPa NNW 2.1 km/h 11.9 km/h 93% 0 mm WeatherDisplay:10.37 W/m2 FEW
02:49 -21.1 °C -21.6 °C 34188.4 hPa NNW 0.8 km/h 9 km/h 93% 0 mm WeatherDisplay:10.37 W/m2 FEW
02:54 -21.2 °C -21.7 °C 34188.4 hPa Calm     93% 0 mm WeatherDisplay:10.37 W/m2 FEW
02:59 -21.2 °C -21.7 °C 34188.4 hPa Calm     93% 0 mm WeatherDisplay:10.37 W/m2 FEW
03:04 -21.3 °C -21.8 °C 34188.4 hPa Calm     93% 0 mm WeatherDisplay:10.37 W/m2 FEW
03:09 -21.4 °C -21.9 °C 34188.4 hPa Calm     93% 0 mm WeatherDisplay:10.37 W/m2 FEW
03:14 -21.5 °C -22.1 °C 34188.4 hPa Calm     93% 0 mm WeatherDisplay:10.37 W/m2 FEW
03:19 -21.6 °C -22.2 °C 34188.4 hPa Calm     93% 0 mm WeatherDisplay:10.37 W/m2 FEW
03:24 -21.8 °C -22.3 °C 34188.4 hPa Calm     93% 0 mm WeatherDisplay:10.37 W/m2 FEW
03:29 -21.8 °C -22.4 °C 34188.4 hPa Calm     93% 0 mm WeatherDisplay:10.37 W/m2 FEW
03:34 -22 °C -22.5 °C 34188.4 hPa Calm     93% 0 mm WeatherDisplay:10.37 W/m2 FEW
03:39 -22.1 °C -22.6 °C 34188.4 hPa Calm     92% 0 mm WeatherDisplay:10.37 W/m2 FEW
03:44 -22.1 °C -22.7 °C 34188.4 hPa Calm     93% 0 mm WeatherDisplay:10.37 W/m2 FEW
03:49 -22.2 °C -22.8 °C 34188.4 hPa Calm     92% 0 mm WeatherDisplay:10.37 W/m2 FEW
03:54 -22.3 °C -22.8 °C 34188.4 hPa Calm     92% 0 mm WeatherDisplay:10.37 W/m2 FEW
03:59 -22.3 °C -22.8 °C 34198.6 hPa Calm     93% 0 mm WeatherDisplay:10.37 W/m2 FEW
04:04 -22.3 °C -22.8 °C 34198.6 hPa Calm     93% 0 mm WeatherDisplay:10.37 W/m2 FEW
04:09 -22.3 °C -22.8 °C 34198.6 hPa Calm     93% 0 mm WeatherDisplay:10.37 W/m2 FEW
04:14 -22.3 °C -22.9 °C 34198.6 hPa Calm     93% 0 mm WeatherDisplay:10.37 W/m2 FEW
04:19 -22.4 °C -22.9 °C 34198.6 hPa Calm     93% 0 mm WeatherDisplay:10.37 W/m2 FEW
04:24 -22.4 °C -22.9 °C 34198.6 hPa Calm     93% 0 mm WeatherDisplay:10.37 W/m2 FEW
04:29 -22.4 °C -23 °C 34198.6 hPa Calm     93% 0 mm WeatherDisplay:10.37 W/m2 FEW
04:34 -22.5 °C -23 °C 34198.6 hPa Calm     93% 0 mm WeatherDisplay:10.37 W/m2 FEW
04:39 -22.5 °C -23 °C 34198.6 hPa Calm     93% 0 mm WeatherDisplay:10.37 W/m2 FEW
04:44 -22.5 °C -23 °C 34198.6 hPa Calm     93% 0 mm WeatherDisplay:10.37 W/m2 FEW
04:49 -22.6 °C -23.1 °C 34198.6 hPa Calm     93% 0 mm WeatherDisplay:10.37 W/m2 FEW
04:54 -22.4 °C -22.9 °C 34198.6 hPa NNW 1.8 km/h 9 km/h 93% 0 mm WeatherDisplay:10.37 W/m2 FEW
04:59 -22.3 °C -22.8 °C 34212.1 hPa NNW 0.5 km/h 5.1 km/h 93% 0 mm WeatherDisplay:10.37 W/m2 FEW
05:04 -22.2 °C -22.7 °C 34212.1 hPa NNW 1 km/h 11.9 km/h 93% 0 mm WeatherDisplay:10.37 W/m2 FEW
05:09 -22.1 °C -22.6 °C 34212.1 hPa Calm   2.6 km/h 93% 0 mm WeatherDisplay:10.37 W/m2 FEW
05:14 -22.1 °C -22.6 °C 34212.1 hPa Calm   6 km/h 93% 0 mm WeatherDisplay:10.37 W/m2 FEW
05:19 -22 °C -22.5 °C 34212.1 hPa NNW 3.7 km/h 9 km/h 93% 0 mm WeatherDisplay:10.37 W/m2 FEW
05:24 -21.9 °C -22.4 °C 34212.1 hPa NNW 1.8 km/h 6 km/h 93% 0 mm WeatherDisplay:10.37 W/m2 FEW
05:29 -21.8 °C -22.3 °C 34212.1 hPa NNW 1.3 km/h 10.3 km/h 93% 0 mm WeatherDisplay:10.37 W/m2 FEW
05:34 -21.7 °C -22.2 °C 34212.1 hPa Calm     93% 0 mm WeatherDisplay:10.37 W/m2 FEW
05:39 -21.6 °C -22.1 °C 34212.1 hPa Calm     93% 0 mm WeatherDisplay:10.37 W/m2 FEW
05:44 -21.5 °C -22.1 °C 34222.3 hPa NNW 2.6 km/h 9 km/h 93% 0 mm WeatherDisplay:10.37 W/m2 FEW
05:49 -21.4 °C -22 °C 34222.3 hPa NNW 3.7 km/h 9 km/h 93% 0 mm WeatherDisplay:10.37 W/m2 FEW
05:54 -21.4 °C -21.9 °C 34222.3 hPa Calm     93% 0 mm WeatherDisplay:10.37 W/m2 FEW
05:59 -21.3 °C -21.9 °C 34222.3 hPa NNW 0.8 km/h 5.1 km/h 93% 0 mm WeatherDisplay:10.37 W/m2 FEW
06:04 -21.3 °C -21.8 °C 34222.3 hPa NNW 1 km/h 2.6 km/h 93% 0 mm WeatherDisplay:10.37 W/m2 FEW
06:09 -21.3 °C -21.8 °C 34222.3 hPa Calm     93% 0 mm WeatherDisplay:10.37 W/m2 FEW
06:14 -21.2 °C -21.8 °C 34222.3 hPa Calm     93% 0 mm WeatherDisplay:10.37 W/m2 FEW
06:19 -21.2 °C -21.8 °C 34222.3 hPa NNW 1.3 km/h 2.6 km/h 93% 0 mm WeatherDisplay:10.37 W/m2 FEW
06:24 -21.2 °C -21.8 °C 34222.3 hPa Calm     93% 0 mm WeatherDisplay:10.37 W/m2 FEW
06:29 -21.2 °C -21.8 °C 34222.3 hPa NNW 3.4 km/h 9 km/h 93% 0 mm WeatherDisplay:10.37 W/m2 FEW
06:34 -21.2 °C -21.7 °C 34222.3 hPa NNW 4.7 km/h 9 km/h 93% 0 mm WeatherDisplay:10.37 W/m2 FEW
06:39 -21.2 °C -21.7 °C 34222.3 hPa Calm     93% 0 mm WeatherDisplay:10.37 W/m2 FEW
06:44 -21.2 °C -21.7 °C 34222.3 hPa Calm     93% 0 mm WeatherDisplay:10.37 W/m2 FEW
06:49 -21.1 °C -21.6 °C 34222.3 hPa Calm     93% 0 mm WeatherDisplay:10.37 W/m2 FEW
06:54 -21.1 °C -21.6 °C 34222.3 hPa Calm     93% 0 mm WeatherDisplay:10.37 W/m2 FEW
06:59 -21.1 °C -21.6 °C 34222.3 hPa Calm     93% 0 mm WeatherDisplay:10.37 W/m2 FEW
07:04 -21.1 °C -21.6 °C 34222.3 hPa Calm     93% 0 mm WeatherDisplay:10.37 W/m2 FEW
07:09 -21.1 °C -21.6 °C 34235.8 hPa NNW 0.8 km/h 6 km/h 93% 0 mm WeatherDisplay:10.37 W/m2 FEW
07:14 -21.1 °C -21.6 °C 34235.8 hPa Calm     93% 0 mm WeatherDisplay:10.37 W/m2 FEW
07:19 -21.1 °C -21.6 °C 34235.8 hPa NNW 0.8 km/h 5.1 km/h 93% 0 mm WeatherDisplay:10.37 W/m2 FEW
07:24 -21.1 °C -21.6 °C 34235.8 hPa Calm     93% 0 mm WeatherDisplay:10.37 W/m2 FEW
07:29 -21.1 °C -21.6 °C 34235.8 hPa NNW 0.8 km/h 9 km/h 93% 0 mm WeatherDisplay:10.37 W/m2 FEW
07:34 -21.1 °C -21.6 °C 34235.8 hPa Calm     93% 0 mm WeatherDisplay:10.37 W/m2 FEW
07:39 -21.1 °C -21.6 °C 34235.8 hPa Calm     93% 0 mm WeatherDisplay:10.37 W/m2 FEW
07:44 -21.1 °C -21.6 °C 34235.8 hPa NNW 4.3 km/h 5.1 km/h 93% 0 mm WeatherDisplay:10.37 W/m2 FEW
07:49 -21.1 °C -21.6 °C 34235.8 hPa Calm     93% 0 mm WeatherDisplay:10.37 W/m2 FEW
07:54 -21.2 °C -21.7 °C 34235.8 hPa Calm     93% 0 mm WeatherDisplay:10.37 W/m2 FEW
08:04 -21.1 °C -21.6 °C 34235.8 hPa NNW 0.3 km/h 2.6 km/h 93% 0 mm WeatherDisplay:10.37 W/m2 FEW
08:09 -21.1 °C -21.6 °C 34235.8 hPa Calm   6 km/h 93% 0 mm WeatherDisplay:10.37 W/m2 FEW
08:14 -21.2 °C -21.7 °C 34235.8 hPa Calm     93% 0 mm WeatherDisplay:10.37 W/m2 FEW
08:19 -21.2 °C -21.7 °C 34235.8 hPa Calm     93% 0 mm WeatherDisplay:10.37 W/m2 FEW
08:24 -21.2 °C -21.7 °C 34235.8 hPa Calm     93% 0 mm WeatherDisplay:10.37 W/m2 FEW
08:29 -21.2 °C -21.7 °C 34235.8 hPa Calm     93% 0 mm WeatherDisplay:10.37 W/m2 FEW
08:44 -21.2 °C -21.7 °C 34235.8 hPa Calm     93% 0 mm WeatherDisplay:10.37 W/m2 FEW
08:49 -21.2 °C -21.8 °C 34246 hPa Calm     92% 0 mm WeatherDisplay:10.37 W/m2 FEW
08:54 -21.2 °C -21.8 °C 34246 hPa Calm     92% 0 mm WeatherDisplay:10.37 W/m2 FEW
09:04 -21.2 °C -21.8 °C 34246 hPa NNW 6.3 km/h 9 km/h 92% 0 mm WeatherDisplay:10.37 W/m2 FEW
09:09 -21.2 °C -21.8 °C 34246 hPa Calm     92% 0 mm WeatherDisplay:10.37 W/m2 FEW
09:19 -21.2 °C -21.8 °C 34246 hPa Calm     92% 0 mm WeatherDisplay:10.37 W/m2 FEW
09:24 -21.2 °C -21.8 °C 34246 hPa Calm     92% 0 mm WeatherDisplay:10.37 W/m2 FEW
09:34 -21.3 °C -21.8 °C 34256.2 hPa NNW 0.5 km/h 9 km/h 93% 0 mm WeatherDisplay:10.37 W/m2 FEW
09:39 -21.3 °C -21.8 °C 34256.2 hPa Calm     93% 0 mm WeatherDisplay:10.37 W/m2 FEW
09:44 -21.3 °C -21.8 °C 34256.2 hPa Calm     93% 0 mm WeatherDisplay:10.37 W/m2 FEW
09:49 -21.3 °C -21.8 °C 34256.2 hPa Calm     93% 0 mm WeatherDisplay:10.37 W/m2 FEW
09:59 -21.3 °C -21.8 °C 34256.2 hPa Calm     93% 0 mm WeatherDisplay:10.37 W/m2 FEW
10:04 -21.3 °C -21.8 °C 34256.2 hPa Calm     93% 0 mm WeatherDisplay:10.37 W/m2 FEW
10:09 -21.3 °C -21.8 °C 34256.2 hPa NNW 2.1 km/h 6 km/h 93% 0 mm WeatherDisplay:10.37 W/m2 FEW
10:19 -21.3 °C -21.8 °C 34269.7 hPa Calm     93% 0 mm WeatherDisplay:10.37 W/m2 FEW
10:24 -21.3 °C -21.8 °C 34269.7 hPa Calm     93% 0 mm WeatherDisplay:10.37 W/m2 FEW
10:29 -21.3 °C -21.8 °C 34269.7 hPa Calm     93% 0 mm WeatherDisplay:10.37 W/m2 FEW
10:34 -21.3 °C -21.8 °C 34269.7 hPa Calm     93% 0 mm WeatherDisplay:10.37 W/m2 FEW
10:39 -21.3 °C -21.8 °C 34279.9 hPa Calm     93% 0 mm WeatherDisplay:10.37 W/m2 FEW
10:44 -21.3 °C -21.8 °C 34279.9 hPa Calm   6 km/h 93% 0 mm WeatherDisplay:10.37 W/m2 FEW
10:49 -21.3 °C -21.8 °C 34279.9 hPa Calm     93% 0 mm WeatherDisplay:10.37 W/m2 FEW
10:59 -21.3 °C -21.9 °C 34279.9 hPa Calm     92% 0 mm WeatherDisplay:10.37 W/m2 FEW
11:04 -21.3 °C -21.9 °C 34279.9 hPa Calm     92% 0 mm WeatherDisplay:10.37 W/m2 FEW
11:09 -21.3 °C -21.9 °C 34279.9 hPa NNW 1 km/h   92% 0 mm WeatherDisplay:10.37 W/m2 FEW
11:14 -21.3 °C -21.9 °C 34279.9 hPa Calm   3.1 km/h 92% 0 mm WeatherDisplay:10.37 W/m2 FEW
11:19 -21.3 °C -21.9 °C 34279.9 hPa NNW 3.7 km/h 9 km/h 92% 0 mm WeatherDisplay:10.37 W/m2 FEW
11:24 -21.4 °C -22 °C 34279.9 hPa NNW 2.1 km/h 9 km/h 92% 0 mm WeatherDisplay:10.37 W/m2 FEW
11:29 -21.4 °C -22.1 °C 34279.9 hPa NNW 9.7 km/h 15 km/h 92% 0 mm WeatherDisplay:10.37 W/m2 FEW
11:34 -21.5 °C -22.1 °C 34293.4 hPa NNW 9.8 km/h 11.9 km/h 92% 0 mm WeatherDisplay:10.37 W/m2 FEW
11:39 -21.6 °C -22.1 °C 34279.9 hPa NNW 4.3 km/h 7.7 km/h 92% 0 mm WeatherDisplay:10.37 W/m2 FEW
11:44 -21.6 °C -22.1 °C 34279.9 hPa NNW 1 km/h 2.6 km/h 92% 0 mm WeatherDisplay:10.37 W/m2 FEW
11:49 -21.6 °C -22.1 °C 34293.4 hPa NNW 0.3 km/h 6 km/h 92% 0 mm WeatherDisplay:10.37 W/m2 FEW
11:54 -21.6 °C -22.1 °C 34293.4 hPa Calm     92% 0 mm WeatherDisplay:10.37 W/m2 FEW
11:59 -21.5 °C -22.1 °C 34293.4 hPa Calm     92% 0 mm WeatherDisplay:10.37 W/m2 FEW
12:04 -21.4 °C -22.1 °C 34293.4 hPa Calm     92% 0 mm WeatherDisplay:10.37 W/m2 FEW
12:09 -21.4 °C -22.1 °C 34293.4 hPa Calm     92% 0 mm WeatherDisplay:10.37 W/m2 FEW
12:14 -21.4 °C -22 °C 34279.9 hPa Calm     92% 0 mm WeatherDisplay:10.37 W/m2 FEW
12:19 -21.4 °C -22 °C 34279.9 hPa Calm     92% 0 mm WeatherDisplay:10.37 W/m2 FEW
12:24 -21.4 °C -22.1 °C 34293.4 hPa Calm     92% 0 mm WeatherDisplay:10.37 W/m2 FEW
12:29 -21.4 °C -22.1 °C 34293.4 hPa Calm     92% 0 mm WeatherDisplay:10.37 W/m2 FEW
12:34 -21.4 °C -22.1 °C 34279.9 hPa Calm     92% 0 mm WeatherDisplay:10.37 W/m2 FEW
12:39 -21.4 °C -22.1 °C 34293.4 hPa Calm     92% 0 mm WeatherDisplay:10.37 W/m2 FEW
12:44 -21.4 °C -22.1 °C 34293.4 hPa Calm     92% 0 mm WeatherDisplay:10.37 W/m2 FEW
12:49 -21.5 °C -22.1 °C 34293.4 hPa Calm   9 km/h 92% 0 mm WeatherDisplay:10.37 W/m2 FEW
12:54 -21.5 °C -22.1 °C 34279.9 hPa NNW 4.3 km/h 9 km/h 92% 0 mm WeatherDisplay:10.37 W/m2 FEW
12:59 -21.5 °C -22.2 °C 34279.9 hPa NNW 3.1 km/h 9 km/h 91% 0 mm WeatherDisplay:10.37 W/m2 FEW
13:04 -21.5 °C -22.1 °C 34293.4 hPa NNW 1.8 km/h 9 km/h 92% 0 mm WeatherDisplay:10.37 W/m2 FEW
13:09 -21.6 °C -22.1 °C 34293.4 hPa NNW 5.6 km/h 9 km/h 92% 0 mm WeatherDisplay:10.37 W/m2 FEW
13:14 -21.6 °C -22.3 °C 34279.9 hPa NNW 1 km/h 6 km/h 91% 0 mm WeatherDisplay:10.37 W/m2 FEW
13:19 -21.6 °C -22.3 °C 34293.4 hPa NW 2.6 km/h 7.7 km/h 91% 0 mm WeatherDisplay:10.37 W/m2 FEW
13:24 -21.6 °C -22.3 °C 34293.4 hPa NNW 6 km/h 6 km/h 91% 0 mm WeatherDisplay:10.37 W/m2 FEW
13:29 -21.6 °C -22.3 °C 34293.4 hPa NNW 3.7 km/h 9 km/h 91% 0 mm WeatherDisplay:10.37 W/m2 FEW
13:34 -21.6 °C -22.3 °C 34293.4 hPa NNW 0.3 km/h 3.1 km/h 91% 0 mm WeatherDisplay:10.37 W/m2 FEW
13:39 -21.6 °C -22.3 °C 34293.4 hPa Calm     91% 0 mm WeatherDisplay:10.37 W/m2 FEW
13:44 -21.6 °C -22.3 °C 34293.4 hPa Calm     91% 0 mm WeatherDisplay:10.37 W/m2 FEW
13:49 -21.6 °C -22.3 °C 34293.4 hPa Calm   9 km/h 91% 0 mm WeatherDisplay:10.37 W/m2 FEW
13:54 -21.6 °C -22.3 °C 34293.4 hPa Calm   3.1 km/h 91% 0 mm WeatherDisplay:10.37 W/m2 FEW
13:59 -21.7 °C -22.3 °C 34293.4 hPa Calm   6 km/h 91% 0 mm WeatherDisplay:10.37 W/m2 FEW
14:04 -21.7 °C -22.3 °C 34293.4 hPa Calm     91% 0 mm WeatherDisplay:10.37 W/m2 FEW
14:09 -21.7 °C -22.4 °C 34293.4 hPa Calm     91% 0 mm WeatherDisplay:10.37 W/m2 FEW
14:14 -21.7 °C -22.4 °C 34293.4 hPa NNW 4.2 km/h 15 km/h 91% 0 mm WeatherDisplay:10.37 W/m2 FEW
14:19 -21.8 °C -22.4 °C 34293.4 hPa Calm     91% 0 mm WeatherDisplay:10.37 W/m2 FEW
14:24 -21.8 °C -22.4 °C 34303.6 hPa Calm     91% 0 mm WeatherDisplay:10.37 W/m2 FEW
14:29 -21.8 °C -22.5 °C 34303.6 hPa Calm     91% 0 mm WeatherDisplay:10.37 W/m2 FEW
14:34 -21.8 °C -22.4 °C 34303.6 hPa Calm     91% 0 mm WeatherDisplay:10.37 W/m2 FEW
14:39 -21.8 °C -22.4 °C 34303.6 hPa Calm     91% 0 mm WeatherDisplay:10.37 W/m2 FEW
14:44 -21.8 °C -22.4 °C 34303.6 hPa NNW 1.6 km/h 9 km/h 91% 0 mm WeatherDisplay:10.37 W/m2 FEW
14:49 -21.8 °C -22.4 °C 34303.6 hPa Calm     91% 0 mm WeatherDisplay:10.37 W/m2 FEW
14:54 -21.8 °C -22.4 °C 34303.6 hPa NNW 0.5 km/h 3.1 km/h 91% 0 mm WeatherDisplay:10.37 W/m2 FEW
14:59 -21.8 °C -22.5 °C 34303.6 hPa NNW 3.9 km/h 9 km/h 91% 0 mm WeatherDisplay:10.37 W/m2 FEW
15:04 -21.8 °C -22.6 °C 34303.6 hPa NNW 3.1 km/h 9 km/h 91% 0 mm WeatherDisplay:10.37 W/m2 FEW
15:09 -21.8 °C -22.5 °C 34303.6 hPa NNW 3.4 km/h 9 km/h 91% 0 mm WeatherDisplay:10.37 W/m2 FEW
15:14 -21.8 °C -22.5 °C 34303.6 hPa Calm     91% 0 mm WeatherDisplay:10.37 W/m2 FEW
15:19 -21.8 °C -22.6 °C 34303.6 hPa Calm     91% 0 mm WeatherDisplay:10.37 W/m2 FEW
15:24 -21.8 °C -22.6 °C 34303.6 hPa NNW 1.3 km/h 6 km/h 91% 0 mm WeatherDisplay:10.37 W/m2 FEW
15:29 -21.9 °C -22.6 °C 34303.6 hPa Calm     91% 0 mm WeatherDisplay:10.37 W/m2 FEW
15:34 -21.9 °C -22.6 °C 34303.6 hPa Calm     91% 0 mm WeatherDisplay:10.37 W/m2 FEW
15:39 -21.9 °C -22.6 °C 34303.6 hPa Calm     91% 0 mm WeatherDisplay:10.37 W/m2 FEW
15:44 -21.9 °C -22.6 °C 34303.6 hPa Calm     91% 0 mm WeatherDisplay:10.37 W/m2 FEW
15:49 -21.9 °C -22.6 °C 34303.6 hPa Calm     91% 0 mm WeatherDisplay:10.37 W/m2 FEW
15:54 -21.9 °C -22.6 °C 34303.6 hPa Calm     91% 0 mm WeatherDisplay:10.37 W/m2 FEW
15:59 -22 °C -22.7 °C 34303.6 hPa Calm     91% 0 mm WeatherDisplay:10.37 W/m2 FEW
16:04 -22.1 °C -22.7 °C 34303.6 hPa Calm     91% 0 mm WeatherDisplay:10.37 W/m2 FEW
16:09 -22.1 °C -22.8 °C 34303.6 hPa Calm     91% 0 mm WeatherDisplay:10.37 W/m2 FEW
16:14 -22.2 °C -22.9 °C 34303.6 hPa Calm     90% 0 mm WeatherDisplay:10.37 W/m2 FEW
16:19 -22.2 °C -22.9 °C 34303.6 hPa Calm     90% 0 mm WeatherDisplay:10.37 W/m2 FEW
16:24 -22.3 °C -23 °C 34303.6 hPa Calm     90% 0 mm WeatherDisplay:10.37 W/m2 FEW
16:29 -22.3 °C -23.1 °C 34303.6 hPa Calm     90% 0 mm WeatherDisplay:10.37 W/m2 FEW
16:34 -22.4 °C -23.2 °C 34303.6 hPa Calm     90% 0 mm WeatherDisplay:10.37 W/m2 FEW
16:39 -22.4 °C -23.2 °C 34303.6 hPa Calm     90% 0 mm WeatherDisplay:10.37 W/m2 FEW
16:44 -22.4 °C -23.1 °C 34303.6 hPa Calm     91% 0 mm WeatherDisplay:10.37 W/m2 FEW
16:49 -22.4 °C -23.1 °C 34303.6 hPa Calm     91% 0 mm WeatherDisplay:10.37 W/m2 FEW
16:54 -22.4 °C -23.1 °C 34303.6 hPa Calm     91% 0 mm WeatherDisplay:10.37 W/m2 FEW
16:59 -22.4 °C -23.1 °C 34313.7 hPa NNW 2.1 km/h 9 km/h 91% 0 mm WeatherDisplay:10.37 W/m2 FEW
17:04 -22.3 °C -22.9 °C 34313.7 hPa NNW 0.5 km/h 6 km/h 92% 0 mm WeatherDisplay:10.37 W/m2 FEW
17:09 -22.3 °C -22.9 °C 34313.7 hPa Calm     92% 0 mm WeatherDisplay:10.37 W/m2 FEW
17:14 -22.4 °C -22.9 °C 34313.7 hPa Calm     92% 0 mm WeatherDisplay:10.37 W/m2 FEW
17:19 -22.4 °C -22.9 °C 34313.7 hPa Calm     92% 0 mm WeatherDisplay:10.37 W/m2 FEW
17:24 -22.4 °C -23 °C 34313.7 hPa Calm     92% 0 mm WeatherDisplay:10.37 W/m2 FEW
17:29 -22.4 °C -23 °C 34313.7 hPa NNW 0.3 km/h   92% 0 mm WeatherDisplay:10.37 W/m2 FEW
17:34 -22.4 °C -23 °C 34313.7 hPa Calm     92% 0 mm WeatherDisplay:10.37 W/m2 FEW
17:39 -22.4 °C -23 °C 34327.3 hPa Calm     92% 0 mm WeatherDisplay:10.37 W/m2 FEW
17:44 -22.4 °C -23.1 °C 34327.3 hPa Calm     92% 0 mm WeatherDisplay:10.37 W/m2 FEW
17:49 -22.4 °C -23 °C 34327.3 hPa Calm     92% 0 mm WeatherDisplay:10.37 W/m2 FEW
17:54 -22.4 °C -23 °C 34327.3 hPa Calm     92% 0 mm WeatherDisplay:10.37 W/m2 FEW
17:59 -22.4 °C -23 °C 34327.3 hPa Calm     92% 0 mm WeatherDisplay:10.37 W/m2 FEW
18:04 -22.4 °C -22.9 °C 34327.3 hPa Calm     92% 0 mm WeatherDisplay:10.37 W/m2 FEW
18:09 -22.3 °C -22.9 °C 34327.3 hPa Calm     92% 0 mm WeatherDisplay:10.37 W/m2 FEW
18:14 -22.3 °C -22.9 °C 34327.3 hPa Calm     92% 0 mm WeatherDisplay:10.37 W/m2 FEW
18:19 -22.3 °C -22.9 °C 34327.3 hPa Calm     92% 0 mm WeatherDisplay:10.37 W/m2 FEW
18:24 -22.3 °C -22.9 °C 34327.3 hPa Calm     92% 0 mm WeatherDisplay:10.37 W/m2 FEW
18:29 -22.3 °C -22.9 °C 34327.3 hPa Calm   3.1 km/h 92% 0 mm WeatherDisplay:10.37 W/m2 FEW
18:34 -22.4 °C -22.9 °C 34327.3 hPa Calm     92% 0 mm WeatherDisplay:10.37 W/m2 FEW
18:39 -22.4 °C -23 °C 34327.3 hPa Calm     92% 0 mm WeatherDisplay:10.37 W/m2 FEW
18:44 -22.4 °C -23 °C 34327.3 hPa Calm     92% 0 mm WeatherDisplay:10.37 W/m2 FEW
18:49 -22.4 °C -23.1 °C 34327.3 hPa Calm     92% 0 mm WeatherDisplay:10.37 W/m2 FEW
18:54 -22.4 °C -23.1 °C 34327.3 hPa Calm     92% 0 mm WeatherDisplay:10.37 W/m2 FEW
18:59 -22.5 °C -23.1 °C 34327.3 hPa Calm     92% 0 mm WeatherDisplay:10.37 W/m2 FEW
19:04 -22.6 °C -23.1 °C 34327.3 hPa Calm     92% 0 mm WeatherDisplay:10.37 W/m2 FEW
19:09 -22.6 °C -23.2 °C 34327.3 hPa Calm     92% 0 mm WeatherDisplay:10.37 W/m2 FEW
19:14 -22.6 °C -23.2 °C 34327.3 hPa Calm     92% 0 mm WeatherDisplay:10.37 W/m2 FEW
19:19 -22.6 °C -23.2 °C 34327.3 hPa Calm     92% 0 mm WeatherDisplay:10.37 W/m2 FEW
19:24 -22.6 °C -23.2 °C 34327.3 hPa Calm     92% 0 mm WeatherDisplay:10.37 W/m2 FEW
19:29 -22.6 °C -23.2 °C 34327.3 hPa Calm     92% 0 mm WeatherDisplay:10.37 W/m2 FEW
19:34 -22.7 °C -23.3 °C 34327.3 hPa Calm     91% 0 mm WeatherDisplay:10.37 W/m2 FEW
19:39 -22.7 °C -23.3 °C 34327.3 hPa Calm     91% 0 mm WeatherDisplay:10.37 W/m2 FEW
19:44 -22.7 °C -23.3 °C 34327.3 hPa Calm     91% 0 mm WeatherDisplay:10.37 W/m2 FEW
19:49 -22.7 °C -23.2 °C 34327.3 hPa Calm     92% 0 mm WeatherDisplay:10.37 W/m2 FEW
19:54 -22.7 °C -23.2 °C 34327.3 hPa Calm     92% 0 mm WeatherDisplay:10.37 W/m2 FEW
19:59 -22.7 °C -23.2 °C 34327.3 hPa Calm     92% 0 mm WeatherDisplay:10.37 W/m2 FEW
20:04 -22.7 °C -23.2 °C 34327.3 hPa Calm     92% 0 mm WeatherDisplay:10.37 W/m2 FEW
20:09 -22.7 °C -23.2 °C 34327.3 hPa Calm     92% 0 mm WeatherDisplay:10.37 W/m2 FEW
20:14 -22.7 °C -23.4 °C 34327.3 hPa Calm     91% 0 mm WeatherDisplay:10.37 W/m2 FEW
20:19 -22.7 °C -23.4 °C 34327.3 hPa Calm     91% 0 mm WeatherDisplay:10.37 W/m2 FEW
20:24 -22.8 °C -23.4 °C 34327.3 hPa Calm     91% 0 mm WeatherDisplay:10.37 W/m2 FEW
20:29 -22.8 °C -23.5 °C 34327.3 hPa Calm     91% 0 mm WeatherDisplay:10.37 W/m2 FEW
20:34 -22.9 °C -23.6 °C 34327.3 hPa Calm     91% 0 mm WeatherDisplay:10.37 W/m2 FEW
20:39 -22.9 °C -23.7 °C 34327.3 hPa Calm     91% 0 mm WeatherDisplay:10.37 W/m2 FEW
20:44 -23 °C -23.7 °C 34327.3 hPa Calm     91% 0 mm WeatherDisplay:10.37 W/m2 FEW
20:49 -23.1 °C -23.8 °C 34327.3 hPa Calm     91% 0 mm WeatherDisplay:10.37 W/m2 FEW
20:54 -23.1 °C -23.8 °C 34313.7 hPa Calm     91% 0 mm WeatherDisplay:10.37 W/m2 FEW
20:59 -23.2 °C -23.8 °C 34313.7 hPa Calm     91% 0 mm WeatherDisplay:10.37 W/m2 FEW
21:04 -23.2 °C -23.8 °C 34327.3 hPa Calm     91% 0 mm WeatherDisplay:10.37 W/m2 FEW
21:09 -23.2 °C -23.8 °C 34327.3 hPa Calm     91% 0 mm WeatherDisplay:10.37 W/m2 FEW
21:14 -23.2 °C -24 °C 34327.3 hPa Calm     90% 0 mm WeatherDisplay:10.37 W/m2 FEW
21:19 -23.3 °C -23.9 °C 34327.3 hPa Calm     91% 0 mm WeatherDisplay:10.37 W/m2 FEW
21:24 -23.3 °C -24 °C 34313.7 hPa Calm     91% 0 mm WeatherDisplay:10.37 W/m2 FEW
21:29 -23.4 °C -24.1 °C 34313.7 hPa Calm     90% 0 mm WeatherDisplay:10.37 W/m2 FEW
21:34 -23.4 °C -24.2 °C 34313.7 hPa Calm     90% 0 mm WeatherDisplay:10.37 W/m2 FEW
21:39 -23.4 °C -24.2 °C 34313.7 hPa Calm     90% 0 mm WeatherDisplay:10.37 W/m2 FEW
21:44 -23.5 °C -24.2 °C 34313.7 hPa Calm     90% 0 mm WeatherDisplay:10.37 W/m2 FEW
21:49 -23.5 °C -24.3 °C 34313.7 hPa Calm     90% 0 mm WeatherDisplay:10.37 W/m2 FEW
21:54 -23.6 °C -24.3 °C 34327.3 hPa Calm     90% 0 mm WeatherDisplay:10.37 W/m2 FEW
21:59 -23.7 °C -24.4 °C 34327.3 hPa Calm     90% 0 mm WeatherDisplay:10.37 W/m2 FEW
22:04 -23.7 °C -24.4 °C 34327.3 hPa Calm     90% 0 mm WeatherDisplay:10.37 W/m2 FEW
22:09 -23.7 °C -24.4 °C 34327.3 hPa Calm     90% 0 mm WeatherDisplay:10.37 W/m2 FEW
22:14 -23.7 °C -24.5 °C 34327.3 hPa Calm     90% 0 mm WeatherDisplay:10.37 W/m2 FEW
22:19 -23.7 °C -24.4 °C 34327.3 hPa Calm     91% 0 mm WeatherDisplay:10.37 W/m2 FEW
22:24 -23.7 °C -24.3 °C 34327.3 hPa Calm     91% 0 mm WeatherDisplay:10.37 W/m2 FEW
22:29 -23.7 °C -24.3 °C 34327.3 hPa Calm     91% 0 mm WeatherDisplay:10.37 W/m2 FEW
22:34 -23.6 °C -24.3 °C 34327.3 hPa Calm     91% 0 mm WeatherDisplay:10.37 W/m2 FEW
22:44 -23.5 °C -24.1 °C 34327.3 hPa Calm     91% 0 mm WeatherDisplay:10.37 W/m2 FEW
22:49 -23.4 °C -24 °C 34327.3 hPa Calm     92% 0 mm WeatherDisplay:10.37 W/m2 FEW
22:54 -23.3 °C -23.9 °C 34327.3 hPa Calm     92% 0 mm WeatherDisplay:10.37 W/m2 FEW
22:59 -23.3 °C -23.8 °C 34313.7 hPa Calm     92% 0 mm WeatherDisplay:10.37 W/m2 FEW
23:04 -23.3 °C -23.8 °C 34327.3 hPa Calm     92% 0 mm WeatherDisplay:10.37 W/m2 FEW
23:09 -23.3 °C -24 °C 34327.3 hPa Calm     91% 0 mm WeatherDisplay:10.37 W/m2 FEW
23:24 -23.4 °C -24 °C 34313.7 hPa Calm     91% 0 mm WeatherDisplay:10.37 W/m2 FEW
23:29 -23.4 °C -24 °C 34313.7 hPa Calm     91% 0 mm WeatherDisplay:10.37 W/m2 FEW
23:34 -23.3 °C -24 °C 34313.7 hPa Calm     91% 0 mm WeatherDisplay:10.37 W/m2 FEW
23:39 -23.3 °C -23.9 °C 34313.7 hPa Calm     91% 0 mm WeatherDisplay:10.37 W/m2 FEW
23:44 -23.3 °C -23.9 °C 34313.7 hPa Calm     91% 0 mm WeatherDisplay:10.37 W/m2 FEW
23:49 -23.3 °C -24 °C 34313.7 hPa Calm     91% 0 mm WeatherDisplay:10.37 W/m2 FEW
23:54 -23.3 °C -24 °C 34313.7 hPa Calm     91% 0 mm WeatherDisplay:10.37 W/m2 FEW
Tuulensuunkaari, Veikkola, Suomi
Compliments of Weather Underground - 2.5 mb